Time;durP1;ratioP1;P1;durP2;ratioP2;P2;SDS_P1;SDS_P2;PMS_P1;PMS_P2;Temp;Humidity;BMP_temperature;BMP_pressure;BME280_temperature;BME280_humidity;BME280_pressure;Samples;Min_cycle;Max_cycle;Signal;HPM_P1;HPM_P2
2022/05/10 00:01:36;;;;;;;4.07;2.88;;;16.00;91.40;;;;;;12780517;23;20460;-81
2022/05/10 00:06:41;;;;;;;5.28;3.30;;;16.40;91.10;;;;;;12780133;23;21062;-80
2022/05/10 00:11:44;;;;;;;4.38;3.00;;;16.00;90.50;;;;;;12797586;23;20187;-80
2022/05/10 00:16:51;;;;;;;4.20;3.05;;;15.90;91.20;;;;;;12781643;23;20477;-81
2022/05/10 00:21:54;;;;;;;3.45;2.58;;;16.30;91.10;;;;;;12797606;23;20229;-80
2022/05/10 00:26:56;;;;;;;4.03;3.00;;;16.20;90.60;;;;;;12778604;23;20230;-80
2022/05/10 00:32:00;;;;;;;3.90;2.72;;;15.90;90.80;;;;;;12781734;23;20203;-81
2022/05/10 00:37:03;;;;;;;4.10;2.53;;;16.00;91.40;;;;;;12780664;23;20250;-81
2022/05/10 00:42:38;;;;;;;2.70;2.42;;;16.20;90.90;;;;;;12778914;23;20234;-81
2022/05/10 00:47:47;;;;;;;4.38;3.50;;;16.20;90.80;;;;;;12781493;23;20211;-80
2022/05/10 00:53:01;;;;;;;6.13;3.28;;;15.80;90.50;;;;;;12793998;23;20191;-81
2022/05/10 00:58:27;;;;;;;4.28;3.08;;;15.40;91.50;;;;;;12778080;23;20179;-80
2022/05/10 01:03:36;;;;;;;3.50;2.53;;;15.70;91.50;;;;;;12780719;23;20238;-80
2022/05/10 01:08:45;;;;;;;4.57;2.65;;;15.60;91.80;;;;;;12791214;23;20175;-81
2022/05/10 01:14:04;;;;;;;3.08;2.67;;;15.90;91.40;;;;;;12821634;23;20218;-80
2022/05/10 01:19:06;;;;;;;5.10;3.55;;;15.90;91.10;;;;;;12806048;23;20720;-81
2022/05/10 01:24:46;;;;;;;4.85;3.53;;;15.50;91.00;;;;;;12807566;23;20574;-81
2022/05/10 01:30:05;;;;;;;3.42;2.63;;;15.50;91.70;;;;;;12785515;23;20176;-80
2022/05/10 01:35:14;;;;;;;4.38;2.80;;;15.70;91.60;;;;;;12803865;23;20262;-81
2022/05/10 01:40:35;;;;;;;3.67;2.65;;;15.60;91.50;;;;;;12785455;23;20172;-80
2022/05/10 01:45:43;;;;;;;3.78;3.15;;;15.60;91.40;;;;;;12802583;23;20554;-81
2022/05/10 01:51:12;;;;;;;3.25;2.80;;;15.40;91.30;;;;;;12801186;23;20176;-81
2022/05/10 01:56:24;;;;;;;3.78;3.05;;;15.20;92.40;;;;;;12792425;23;20196;-80
2022/05/10 02:01:33;;;;;;;4.78;3.08;;;15.30;92.10;;;;;;12836266;23;20171;-81
2022/05/10 02:07:19;;;;;;;4.97;3.03;;;15.20;92.10;;;;;;12813445;23;20176;-81
2022/05/10 02:12:30;;;;;;;4.60;3.30;;;15.20;92.00;;;;;;12583428;23;20277;-81
2022/05/10 02:17:39;;;;;;;2.90;2.17;;;15.20;92.10;;;;;;12587669;23;20845;-80
2022/05/10 02:23:12;;;;;;;5.70;3.00;;;14.80;92.90;;;;;;12583353;23;20265;-81
2022/05/10 02:28:24;;;;;;;4.97;3.20;;;14.50;92.40;;;;;;12607604;23;20205;-80
2022/05/10 02:33:29;;;;;;;6.20;3.37;;;14.20;93.10;;;;;;12597796;23;20198;-81
2022/05/10 02:38:37;;;;;;;7.03;3.73;;;14.30;94.30;;;;;;12593614;23;20265;-81
2022/05/10 02:43:52;;;;;;;4.37;3.00;;;14.80;93.00;;;;;;12773319;23;20642;-81
2022/05/10 02:48:56;;;;;;;4.23;2.50;;;14.90;93.10;;;;;;12814855;23;20244;-80
2022/05/10 02:53:59;;;;;;;4.03;3.00;;;15.00;92.90;;;;;;12804445;23;20204;-81
2022/05/10 02:59:09;;;;;;;5.10;3.43;;;15.00;92.40;;;;;;12798749;23;20163;-81
2022/05/10 03:04:12;;;;;;;4.20;2.73;;;14.70;93.10;;;;;;12793962;23;20184;-81
2022/05/10 03:09:16;;;;;;;6.30;3.50;;;14.60;93.20;;;;;;12796030;23;20180;-81
2022/05/10 03:14:19;;;;;;;3.70;3.00;;;14.70;92.60;;;;;;12796044;23;20191;-81
2022/05/10 03:19:21;;;;;;;3.90;2.97;;;14.70;93.30;;;;;;12794780;23;20180;-80
2022/05/10 03:24:23;;;;;;;5.10;3.17;;;14.90;93.20;;;;;;12794765;23;20188;-81
2022/05/10 03:29:26;;;;;;;6.33;3.50;;;14.80;92.90;;;;;;12796515;23;20222;-80
2022/05/10 03:39:50;;;;;;;4.83;2.67;;;14.80;92.90;;;;;;12801675;23;20171;-81
2022/05/10 03:44:53;;;;;;;5.07;3.10;;;15.00;92.60;;;;;;12797433;23;20176;-81
2022/05/10 03:49:56;;;;;;;5.60;3.20;;;14.90;92.50;;;;;;12791065;23;20672;-79
2022/05/10 03:54:59;;;;;;;4.30;3.13;;;15.10;92.40;;;;;;12784935;23;20535;-82
2022/05/10 04:00:06;;;;;;;5.57;3.90;;;15.20;92.30;;;;;;12785832;23;20168;-80
2022/05/10 04:05:15;;;;;;;4.40;2.97;;;15.20;92.20;;;;;;12824396;23;20586;-80
2022/05/10 04:10:19;;;;;;;5.93;4.37;;;15.70;91.60;;;;;;12803802;23;20226;-80
2022/05/10 04:15:22;;;;;;;9.07;5.67;;;15.40;91.40;;;;;;12757964;23;20258;-80
2022/05/10 04:20:24;;;;;;;8.03;4.27;;;14.10;92.30;;;;;;12783722;23;20268;-80
2022/05/10 04:25:27;;;;;;;7.30;3.90;;;14.60;93.20;;;;;;12783628;23;20176;-80
2022/05/10 04:30:29;;;;;;;5.03;3.80;;;14.80;92.80;;;;;;12801692;23;20190;-81
2022/05/10 04:35:32;;;;;;;5.27;3.33;;;15.10;92.60;;;;;;12783150;23;20187;-81
2022/05/10 04:45:55;;;;;;;7.10;4.17;;;14.80;91.90;;;;;;12780903;23;20291;-81
2022/05/10 04:50:58;;;;;;;4.10;3.33;;;14.50;91.90;;;;;;12800777;23;20230;-81
2022/05/10 04:56:03;;;;;;;11.87;6.87;;;15.10;92.50;;;;;;12788514;23;20539;-81
2022/05/10 05:01:08;;;;;;;5.25;3.55;;;14.90;90.60;;;;;;12790711;23;20174;-81
2022/05/10 05:06:11;;;;;;;13.87;6.37;;;15.10;92.00;;;;;;12782811;23;20179;-81
2022/05/10 05:11:16;;;;;;;12.38;5.20;;;14.90;87.50;;;;;;12734269;23;20203;-81
2022/05/10 05:16:18;;;;;;;9.83;4.33;;;14.90;90.60;;;;;;12733229;23;20249;-80
2022/05/10 05:21:21;;;;;;;8.17;4.97;;;15.30;91.50;;;;;;12783794;23;20176;-81
2022/05/10 05:26:25;;;;;;;10.87;4.10;;;15.70;87.90;;;;;;12755402;23;20214;-80
2022/05/10 05:31:27;;;;;;;8.60;5.50;;;15.50;90.90;;;;;;12792846;23;20179;-80
2022/05/10 05:36:30;;;;;;;2.70;2.50;;;15.30;88.10;;;;;;12797447;23;20199;-80
2022/05/10 05:41:32;;;;;;;8.20;3.25;;;15.70;91.20;;;;;;12817081;23;20218;-80
2022/05/10 05:46:36;;;;;;;2.92;2.63;;;16.40;91.20;;;;;;12795446;23;20187;-81
2022/05/10 05:51:38;;;;;;;5.50;3.53;;;16.60;90.10;;;;;;12793943;23;20250;-80
2022/05/10 05:56:43;;;;;;;4.17;2.90;;;16.40;88.90;;;;;;12798142;23;20581;-80
2022/05/10 06:01:45;;;;;;;7.20;3.85;;;16.80;89.00;;;;;;12820183;23;20163;-80
2022/05/10 06:06:48;;;;;;;20.52;5.30;;;16.90;83.70;;;;;;12791647;23;20207;-80
2022/05/10 06:11:52;;;;;;;9.98;4.07;;;16.60;80.30;;;;;;12809786;23;20168;-80
2022/05/10 06:16:57;;;;;;;5.53;3.60;;;16.40;83.40;;;;;;12794064;23;20222;-80
2022/05/10 06:22:07;;;;;;;9.77;4.50;;;16.30;86.10;;;;;;12808824;23;20176;-80
2022/05/10 06:27:16;;;;;;;5.13;3.27;;;16.50;80.60;;;;;;12811521;23;20168;-80
2022/05/10 06:32:26;;;;;;;3.20;2.65;;;17.00;81.70;;;;;;12791198;23;20250;-82
2022/05/10 06:43:25;;;;;;;20.58;6.00;;;17.60;78.40;;;;;;12707531;23;20244;-95
2022/05/10 06:49:04;;;;;;;8.27;4.80;;;17.60;77.40;;;;;;12695097;23;20177;-96
2022/05/10 06:54:41;;;;;;;9.02;4.97;;;17.10;78.70;;;;;;12707762;23;20200;-96
2022/05/10 07:00:07;;;;;;;14.53;4.47;;;17.00;78.70;;;;;;12702904;23;20237;-96
2022/05/10 07:05:21;;;;;;;12.40;4.90;;;17.30;78.60;;;;;;12606576;23;20178;-96
2022/05/10 07:10:43;;;;;;;9.73;5.20;;;17.60;76.60;;;;;;12483820;23;20209;-96
2022/05/10 07:16:47;;;;;;;6.38;4.35;;;17.40;78.60;;;;;;12268031;24;20239;-96
2022/05/10 07:22:14;;;;;;;8.15;3.67;;;17.50;79.20;;;;;;12265093;24;20177;-96
2022/05/10 07:27:23;;;;;;;9.30;3.60;;;17.90;78.30;;;;;;12283960;24;20177;-96
2022/05/10 07:32:27;;;;;;;9.13;3.63;;;18.20;76.50;;;;;;12277727;24;20197;-96
2022/05/10 07:37:34;;;;;;;7.90;4.30;;;18.30;76.60;;;;;;12386446;24;20250;-96
2022/05/10 07:42:42;;;;;;;6.80;4.57;;;18.50;76.10;;;;;;12385747;23;20188;-96
2022/05/10 07:47:49;;;;;;;7.93;3.77;;;18.40;76.80;;;;;;12571481;23;20218;-96
2022/05/10 07:53:00;;;;;;;11.02;3.72;;;18.60;77.10;;;;;;12692427;23;20251;-95
2022/05/10 07:58:07;;;;;;;9.00;4.53;;;18.70;77.60;;;;;;12732585;23;20278;-96
2022/05/10 08:03:20;;;;;;;6.15;3.70;;;18.90;75.80;;;;;;12785368;23;20183;-96
2022/05/10 08:08:26;;;;;;;7.15;5.03;;;18.90;76.90;;;;;;12548267;23;20246;-96
2022/05/10 08:13:39;;;;;;;6.72;4.20;;;19.20;76.50;;;;;;12526395;23;20191;-96
2022/05/10 08:18:45;;;;;;;8.20;4.82;;;19.20;75.40;;;;;;12453578;23;20220;-96
2022/05/10 08:23:55;;;;;;;8.57;3.28;;;19.50;73.30;;;;;;12430083;23;20251;-96
2022/05/10 08:29:04;;;;;;;4.78;3.80;;;19.50;73.40;;;;;;12430808;23;20216;-95
2022/05/10 08:34:08;;;;;;;6.60;3.63;;;19.60;73.00;;;;;;12447775;23;20208;-96
2022/05/10 08:39:13;;;;;;;6.57;3.58;;;19.50;74.20;;;;;;12635667;23;20215;-96
2022/05/10 08:44:25;;;;;;;6.13;2.92;;;19.60;72.80;;;;;;12745195;23;20176;-96
2022/05/10 08:49:46;;;;;;;4.43;2.60;;;19.70;72.60;;;;;;12727466;23;20180;-96
2022/05/10 08:55:06;;;;;;;6.68;3.15;;;19.80;72.70;;;;;;12822179;23;20204;-96
2022/05/10 09:00:31;;;;;;;4.93;2.95;;;19.90;73.60;;;;;;12812868;23;20175;-96
2022/05/10 09:05:42;;;;;;;3.67;2.90;;;19.90;71.20;;;;;;12811062;23;20192;-96
2022/05/10 09:10:56;;;;;;;5.80;2.95;;;19.90;71.70;;;;;;12780019;23;20191;-95
2022/05/10 09:16:08;;;;;;;4.15;2.50;;;20.00;71.40;;;;;;12779592;23;20199;-95
2022/05/10 09:21:30;;;;;;;9.77;3.17;;;20.10;70.70;;;;;;12756294;23;20175;-96
2022/05/10 09:26:38;;;;;;;7.93;2.88;;;20.20;71.40;;;;;;12776295;23;20242;-96
2022/05/10 09:37:28;;;;;;;8.90;3.45;;;20.30;69.10;;;;;;12778596;23;20195;-96
2022/05/10 09:42:42;;;;;;;3.80;2.75;;;20.20;68.50;;;;;;12620559;23;20240;-96
2022/05/10 09:47:55;;;;;;;7.20;3.65;;;20.20;70.10;;;;;;12598177;23;20237;-96
2022/05/10 09:53:22;;;;;;;4.50;3.15;;;20.30;68.70;;;;;;12624450;23;20260;-96
2022/05/10 09:58:51;;;;;;;2.75;2.47;;;20.10;69.30;;;;;;12660417;23;20232;-96
2022/05/10 10:03:54;;;;;;;7.60;2.78;;;20.40;68.40;;;;;;12622606;23;20178;-96
2022/05/10 10:08:58;;;;;;;6.57;3.08;;;20.30;68.10;;;;;;12499817;23;20183;-95
2022/05/10 10:14:06;;;;;;;5.35;2.65;;;20.50;67.30;;;;;;12499609;23;20279;-96
2022/05/10 10:19:35;;;;;;;4.53;2.83;;;20.60;67.00;;;;;;12569943;23;20234;-96
2022/05/10 10:25:00;;;;;;;6.78;3.10;;;20.50;68.50;;;;;;12523879;23;20225;-96
2022/05/10 10:30:36;;;;;;;4.40;2.50;;;20.50;68.90;;;;;;12570210;23;20178;-96
2022/05/10 10:35:49;;;;;;;4.18;2.17;;;20.50;68.30;;;;;;12719153;23;20259;-96
2022/05/10 10:41:05;;;;;;;4.95;3.17;;;20.60;67.90;;;;;;12777812;23;20180;-95
2022/05/10 10:46:25;;;;;;;7.25;2.92;;;20.50;68.20;;;;;;12814119;23;20230;-95
2022/05/10 10:51:32;;;;;;;8.18;2.40;;;20.80;63.00;;;;;;12825575;23;20211;-96
2022/05/10 10:56:52;;;;;;;6.95;3.33;;;20.70;66.50;;;;;;12842565;23;20204;-96
2022/05/10 11:02:17;;;;;;;2.83;2.40;;;20.70;62.20;;;;;;12847207;23;20202;-96
2022/05/10 11:07:43;;;;;;;5.53;3.55;;;20.80;65.70;;;;;;12625687;23;20166;-90
2022/05/10 11:13:14;;;;;;;7.53;2.83;;;20.90;65.80;;;;;;12634159;23;20173;-96
2022/05/10 11:25:12;;;;;;;7.97;2.97;;;21.00;63.20;;;;;;12556808;23;20154;-96
2022/05/10 11:30:53;;;;;;;7.05;3.40;;;20.90;63.70;;;;;;12607376;23;20210;-96
2022/05/10 11:36:37;;;;;;;5.80;3.05;;;21.10;63.70;;;;;;12599667;23;20201;-96
2022/05/10 11:43:15;;;;;;;4.85;2.95;;;21.00;65.40;;;;;;12645493;23;20181;-96
2022/05/10 11:49:21;;;;;;;7.07;2.60;;;21.00;64.20;;;;;;12281841;24;20195;-95
2022/05/10 11:55:39;;;;;;;5.22;3.22;;;21.40;62.50;;;;;;12139827;24;20215;-96
2022/05/10 12:00:51;;;;;;;5.97;2.97;;;21.10;63.20;;;;;;11919024;24;20171;-96
2022/05/10 12:06:24;;;;;;;4.90;2.63;;;20.90;64.20;;;;;;11852000;25;20171;-96
2022/05/10 12:11:37;;;;;;;5.10;2.85;;;21.20;60.60;;;;;;11869454;25;20203;-96
2022/05/10 12:22:10;;;;;;;5.03;2.40;;;21.10;63.70;;;;;;11950532;24;20215;-96
2022/05/10 12:27:15;;;;;;;4.35;2.55;;;21.20;62.10;;;;;;11957449;24;20190;-96
2022/05/10 12:32:44;;;;;;;3.10;2.63;;;21.20;61.40;;;;;;12236712;24;20184;-96
2022/05/10 12:38:00;;;;;;;12.90;3.33;;;21.20;63.50;;;;;;12388284;23;20232;-96
2022/05/10 12:44:31;;;;;;;6.35;2.97;;;20.90;62.70;;;;;;12427217;24;20172;-96
2022/05/10 13:02:54;;;;;;;9.30;2.40;;;21.30;63.20;;;;;;12745489;23;20200;-96
2022/05/10 13:08:38;;;;;;;14.00;2.70;;;21.50;60.00;;;;;;12678804;23;20184;-96
2022/05/10 13:14:03;;;;;;;2.95;2.45;;;21.60;59.80;;;;;;12656890;23;20653;-96
2022/05/10 13:19:08;;;;;;;4.05;2.83;;;21.40;61.80;;;;;;12682148;23;20236;-96
2022/05/10 13:24:16;;;;;;;5.88;2.80;;;21.80;60.20;;;;;;12679017;23;20189;-96
2022/05/10 13:29:20;;;;;;;3.60;2.78;;;21.60;61.20;;;;;;12665550;23;20181;-96
2022/05/10 13:34:27;;;;;;;10.07;2.17;;;21.30;62.30;;;;;;12640465;23;20268;-96
2022/05/10 14:11:41;;;;;;;4.45;2.28;;;22.00;59.70;;;;;;12793221;23;20281;-96
2022/05/10 14:16:45;;;;;;;6.97;2.50;;;22.00;58.30;;;;;;12781540;23;20199;-96
2022/05/10 14:21:50;;;;;;;2.85;2.20;;;21.90;60.50;;;;;;12775227;23;20176;-95
2022/05/10 14:27:11;;;;;;;4.63;2.28;;;21.80;61.80;;;;;;12758852;23;20242;-96
2022/05/10 14:32:22;;;;;;;4.28;2.22;;;21.80;58.30;;;;;;12754036;23;20179;-95
2022/05/10 14:37:33;;;;;;;4.65;2.00;;;21.40;62.80;;;;;;12766073;23;20258;-96
2022/05/10 14:42:38;;;;;;;5.45;3.03;;;21.50;63.90;;;;;;12801898;23;20758;-96
2022/05/10 14:47:41;;;;;;;3.33;2.33;;;21.50;61.10;;;;;;12769664;23;20243;-96
2022/05/10 14:52:44;;;;;;;3.33;2.45;;;21.60;62.00;;;;;;12801706;23;20188;-96
2022/05/10 14:57:52;;;;;;;9.07;2.85;;;21.60;62.20;;;;;;12776175;23;20196;-96
2022/05/10 15:03:17;;;;;;;2.92;2.30;;;21.70;58.00;;;;;;12808597;23;20179;-96
2022/05/10 15:08:21;;;;;;;8.70;3.10;;;21.70;63.10;;;;;;12828656;23;20231;-96
2022/05/10 16:14:52;;;;;;;2.60;2.40;;;20.80;65.30;;;;;;12849567;22;20211;-95
2022/05/10 16:19:55;;;;;;;5.07;2.35;;;20.90;65.30;;;;;;12811265;23;20188;-94
2022/05/10 16:25:23;;;;;;;2.78;1.80;;;21.00;63.80;;;;;;12816286;23;20187;-96
2022/05/10 16:30:54;;;;;;;3.30;2.70;;;21.00;65.10;;;;;;12703811;23;20255;-95
2022/05/10 16:36:29;;;;;;;3.22;2.33;;;20.90;65.30;;;;;;12741957;23;20232;31
2022/05/10 17:09:42;;;;;;;2.28;2.08;;;20.80;62.90;;;;;;12808128;23;20593;-93
2022/05/10 17:14:44;;;;;;;3.35;2.40;;;20.60;65.70;;;;;;12765168;23;20204;-93
2022/05/10 17:19:47;;;;;;;3.53;3.05;;;20.50;66.00;;;;;;12766956;23;20235;-94
2022/05/10 17:24:49;;;;;;;12.23;3.53;;;20.30;64.50;;;;;;12765278;23;20188;-95
2022/05/10 17:29:54;;;;;;;10.30;3.15;;;19.90;65.00;;;;;;12804840;23;20191;-96
2022/05/10 17:34:57;;;;;;;10.18;3.45;;;19.50;64.70;;;;;;12751678;23;20235;-96
2022/05/10 17:39:59;;;;;;;8.93;4.00;;;19.10;66.50;;;;;;12757675;23;20184;-94
2022/05/10 17:45:07;;;;;;;8.13;5.10;;;18.70;68.60;;;;;;12771643;23;20234;-95
2022/05/10 17:50:12;;;;;;;15.45;5.57;;;18.50;72.20;;;;;;12740993;23;20184;-94
2022/05/10 17:55:15;;;;;;;8.60;3.70;;;18.40;72.60;;;;;;12766004;23;20200;-94
2022/05/10 18:00:21;;;;;;;5.60;4.07;;;18.10;72.60;;;;;;12766333;23;20172;-94
2022/05/10 18:05:25;;;;;;;12.45;3.63;;;17.80;76.60;;;;;;12746156;23;20179;-93
2022/05/10 18:10:29;;;;;;;22.77;5.55;;;17.60;77.10;;;;;;12744528;23;20238;-94
2022/05/10 18:15:31;;;;;;;25.70;5.25;;;17.40;74.90;;;;;;12746092;23;20234;-94
2022/05/10 18:20:35;;;;;;;23.00;6.10;;;17.20;75.60;;;;;;12746496;23;20211;-94
2022/05/10 18:25:39;;;;;;;6.97;3.13;;;17.00;77.80;;;;;;12770789;23;20246;-88
2022/05/10 18:30:42;;;;;;;23.67;3.80;;;17.00;79.40;;;;;;12765315;23;20636;-82
2022/05/10 18:35:46;;;;;;;19.60;3.47;;;17.70;79.30;;;;;;12793594;23;20195;-82
2022/05/10 18:40:55;;;;;;;11.98;4.03;;;18.50;77.50;;;;;;12797604;23;20517;-82
2022/05/10 18:45:58;;;;;;;14.70;4.53;;;18.80;76.60;;;;;;12785204;23;20495;-83
2022/05/10 18:51:05;;;;;;;9.77;4.07;;;19.10;76.20;;;;;;12765702;23;20179;-84
2022/05/10 18:56:12;;;;;;;15.73;5.18;;;19.10;76.20;;;;;;12770216;23;20188;-83
2022/05/10 19:01:15;;;;;;;16.38;5.25;;;18.90;76.20;;;;;;12804380;23;20214;-83
2022/05/10 19:06:18;;;;;;;24.15;5.85;;;18.80;77.30;;;;;;12786897;23;20200;-82
2022/05/10 19:11:21;;;;;;;9.45;3.33;;;18.60;77.80;;;;;;12760199;23;20183;-82
2022/05/10 19:16:24;;;;;;;8.38;3.90;;;18.60;79.00;;;;;;12805597;23;20535;-82
2022/05/10 19:21:27;;;;;;;4.60;3.15;;;19.00;78.00;;;;;;12787417;23;20504;-82
2022/05/10 19:26:30;;;;;;;20.15;5.38;;;19.10;77.50;;;;;;12761915;23;20191;-83
2022/05/10 19:31:34;;;;;;;10.57;4.82;;;19.00;76.90;;;;;;12736945;23;20179;-82
2022/05/10 19:36:39;;;;;;;7.15;3.85;;;18.90;76.90;;;;;;12759337;23;20454;-83
2022/05/10 19:41:44;;;;;;;10.45;3.85;;;18.80;77.70;;;;;;12787272;23;20230;-82
2022/05/10 19:46:46;;;;;;;17.50;5.40;;;18.90;78.70;;;;;;12758793;23;21043;-82
2022/05/10 19:51:49;;;;;;;9.98;4.57;;;18.90;77.40;;;;;;12761315;23;20187;-83
2022/05/10 19:56:55;;;;;;;4.55;3.45;;;18.80;76.90;;;;;;12735033;23;20195;-83
2022/05/10 20:07:19;;;;;;;14.38;5.93;;;17.90;77.80;;;;;;12799147;23;20199;-84
2022/05/10 20:12:23;;;;;;;7.93;6.13;;;17.50;79.00;;;;;;12776766;23;20238;-83
2022/05/10 20:17:26;;;;;;;17.40;6.85;;;17.80;77.50;;;;;;12787414;23;20188;-83
2022/05/10 20:22:28;;;;;;;14.35;6.15;;;17.60;80.40;;;;;;12758980;23;20227;-83
2022/05/10 20:27:31;;;;;;;4.40;3.25;;;17.60;80.80;;;;;;12804341;23;20226;-83
2022/05/10 20:32:34;;;;;;;6.88;3.72;;;17.70;83.50;;;;;;12760837;23;20458;-83
2022/05/10 20:37:37;;;;;;;3.25;2.58;;;18.10;81.80;;;;;;12787920;23;20188;-84
2022/05/10 20:42:46;;;;;;;26.08;7.00;;;18.10;82.10;;;;;;12781813;23;20164;-84
2022/05/10 20:47:49;;;;;;;16.98;6.05;;;17.90;78.00;;;;;;12780813;23;20171;-84
2022/05/10 20:52:53;;;;;;;12.68;6.35;;;17.50;80.90;;;;;;12790571;23;20226;-84
2022/05/10 20:57:57;;;;;;;17.20;5.40;;;17.40;80.10;;;;;;12764704;23;20191;-84
2022/05/10 21:03:00;;;;;;;8.70;6.05;;;17.60;79.10;;;;;;12765399;23;20168;-84
2022/05/10 21:13:25;;;;;;;10.52;5.40;;;17.60;80.20;;;;;;12808470;23;20222;-84
2022/05/10 21:18:46;;;;;;;9.93;5.18;;;17.60;81.60;;;;;;12789119;23;20651;-84
2022/05/10 21:24:07;;;;;;;7.50;4.25;;;17.00;78.10;;;;;;12811246;23;20177;-84
2022/05/10 21:35:00;;;;;;;14.93;6.40;;;16.20;81.20;;;;;;12765321;23;20179;-84
2022/05/10 21:40:12;;;;;;;14.32;6.63;;;;;;;;;;12767168;23;20262;-84
2022/05/10 21:45:15;;;;;;;8.52;4.78;;;15.90;82.50;;;;;;12814189;23;20277;-84
2022/05/10 21:50:24;;;;;;;7.47;5.75;;;16.10;89.10;;;;;;12767661;23;20717;-84
2022/05/10 21:55:27;;;;;;;16.70;8.38;;;16.30;87.40;;;;;;12767292;23;20535;-84
2022/05/10 22:00:36;;;;;;;19.92;9.32;;;16.00;85.40;;;;;;12795139;23;20500;-84
2022/05/10 22:05:40;;;;;;;13.68;7.90;;;16.10;86.20;;;;;;12811789;23;20172;-84
2022/05/10 22:10:43;;;;;;;14.00;8.20;;;16.20;87.00;;;;;;12800492;23;20179;-85
2022/05/10 22:15:45;;;;;;;16.77;8.60;;;16.30;84.90;;;;;;12794642;23;20258;-84
2022/05/10 22:20:48;;;;;;;19.63;10.40;;;16.60;87.30;;;;;;12767463;23;20631;-85
2022/05/10 22:25:50;;;;;;;13.40;8.18;;;16.60;85.00;;;;;;12767468;23;20713;-84
2022/05/10 22:30:53;;;;;;;12.30;7.55;;;16.90;87.60;;;;;;12794526;23;20172;-85
2022/05/10 22:35:55;;;;;;;11.75;5.72;;;17.10;88.40;;;;;;12810771;23;20184;-84
2022/05/10 22:40:58;;;;;;;11.80;5.45;;;17.10;88.00;;;;;;12794357;23;20198;-84
2022/05/10 22:46:08;;;;;;;12.20;7.28;;;17.40;88.00;;;;;;12784487;23;20226;-84
2022/05/10 22:51:11;;;;;;;14.60;7.97;;;17.30;85.40;;;;;;12767772;23;20222;-84
2022/05/10 22:56:14;;;;;;;17.00;9.90;;;17.10;88.20;;;;;;12793367;23;20521;-84
2022/05/10 23:01:16;;;;;;;10.95;7.38;;;17.10;86.30;;;;;;12766792;23;20175;-84
2022/05/10 23:06:19;;;;;;;14.13;9.38;;;17.20;87.80;;;;;;12790714;23;20270;-84
2022/05/10 23:11:21;;;;;;;13.07;8.73;;;17.40;86.20;;;;;;12793103;23;20176;-84
2022/05/10 23:16:24;;;;;;;12.38;9.15;;;17.30;88.30;;;;;;12767524;23;20235;-84
2022/05/10 23:21:26;;;;;;;17.95;10.75;;;17.20;89.20;;;;;;12794005;23;20509;-84
2022/05/10 23:26:29;;;;;;;10.25;7.85;;;17.00;89.20;;;;;;12765994;23;20187;-84
2022/05/10 23:31:31;;;;;;;12.43;8.15;;;17.00;90.20;;;;;;12810144;23;20222;-84
2022/05/10 23:36:34;;;;;;;12.02;8.38;;;16.90;90.40;;;;;;12792975;23;20192;-84
2022/05/10 23:41:36;;;;;;;16.70;9.32;;;17.00;90.40;;;;;;12796219;23;20515;-84
2022/05/10 23:46:47;;;;;;;8.05;5.78;;;16.80;90.50;;;;;;12792153;23;20172;-84
2022/05/10 23:51:52;;;;;;;17.65;10.15;;;16.90;91.50;;;;;;12810735;23;20245;-85
2022/05/10 23:56:57;;;;;;;13.20;9.35;;;16.90;90.90;;;;;;12764771;23;20271;-85
